Time;durP1;ratioP1;P1;durP2;ratioP2;P2;SDS_P1;SDS_P2;PMS_P1;PMS_P2;Temp;Humidity;BMP_temperature;BMP_pressure;BME280_temperature;BME280_humidity;BME280_pressure;Samples;Min_cycle;Max_cycle;Signal;HPM_P1;HPM_P2
2023/09/09 00:02:15;;;;;;;0.00;0.00;;;;;;;20.37;64.05;100364.75;6343923;28;20089;-72
2023/09/09 00:05:18;;;;;;;0.00;0.00;;;;;;;20.56;64.91;100368.25;6332606;28;20051;-72
2023/09/09 00:08:21;;;;;;;0.00;0.00;;;;;;;20.56;64.96;100376.22;6337167;28;20059;-72
2023/09/09 00:11:22;;;;;;;0.00;0.00;;;;;;;20.54;63.84;100377.19;6325711;28;20055;-72
2023/09/09 00:14:24;;;;;;;0.00;0.00;;;;;;;20.56;64.10;100370.91;6342648;28;20056;-72
2023/09/09 00:17:25;;;;;;;0.00;0.00;;;;;;;20.59;63.99;100370.63;6340704;28;20510;-72
2023/09/09 00:20:36;;;;;;;0.00;0.00;;;;;;;20.59;63.82;100368.84;6340321;28;20055;-72
2023/09/09 00:23:37;;;;;;;0.00;0.00;;;;;;;20.44;64.71;100365.81;6340673;28;20054;-72
2023/09/09 00:26:37;;;;;;;0.00;0.00;;;;;;;20.36;65.08;100370.19;6339875;28;20052;-72
2023/09/09 00:29:41;;;;;;;0.00;0.00;;;;;;;20.33;64.95;100363.41;6327952;28;20056;-71
2023/09/09 00:32:43;;;;;;;0.00;0.00;;;;;;;20.32;65.09;100367.00;6330583;28;20495;-72
2023/09/09 00:35:44;;;;;;;0.00;0.00;;;;;;;20.36;64.97;100359.59;6337423;28;20055;-72
2023/09/09 00:38:45;;;;;;;0.00;0.00;;;;;;;20.32;65.16;100361.72;6331845;28;20078;-72
2023/09/09 00:41:46;;;;;;;0.00;0.00;;;;;;;20.35;64.93;100355.31;6341802;28;20043;-72
2023/09/09 00:44:49;;;;;;;0.00;0.00;;;;;;;20.38;64.99;100357.63;6349118;28;20088;-71
2023/09/09 00:47:51;;;;;;;0.00;0.00;;;;;;;20.33;65.24;100358.91;6343262;28;20052;-72
2023/09/09 00:50:54;;;;;;;0.00;0.00;;;;;;;20.28;64.96;100347.94;6332422;28;20530;-72
2023/09/09 00:53:55;;;;;;;0.00;0.00;;;;;;;20.30;64.58;100350.44;6338442;27;20138;-72
2023/09/09 00:57:00;;;;;;;0.00;0.00;;;;;;;20.31;64.54;100344.16;6348012;28;20142;-72
2023/09/09 01:00:03;;;;;;;0.00;0.00;;;;;;;20.33;64.63;100356.28;6350229;28;20132;-72
2023/09/09 01:03:09;;;;;;;0.00;0.00;;;;;;;20.28;64.65;100352.41;6349639;28;20469;-72
2023/09/09 01:06:10;;;;;;;0.00;0.00;;;;;;;20.21;65.53;100344.22;6348429;28;20463;-72
2023/09/09 01:09:11;;;;;;;0.00;0.00;;;;;;;20.24;65.32;100346.59;6350394;28;20154;-72
2023/09/09 01:12:12;;;;;;;0.00;0.00;;;;;;;20.22;64.78;100353.00;6348902;28;20043;-72
2023/09/09 01:15:13;;;;;;;0.00;0.00;;;;;;;20.22;64.67;100347.69;6343448;28;20063;-72
2023/09/09 01:18:14;;;;;;;0.00;0.00;;;;;;;20.21;65.11;100352.16;6343552;28;20096;-72
2023/09/09 01:21:18;;;;;;;0.00;0.00;;;;;;;20.15;64.85;100355.41;6344205;28;20051;-72
2023/09/09 01:24:22;;;;;;;0.00;0.00;;;;;;;20.15;64.67;100350.09;6329943;28;20052;-72
2023/09/09 01:27:23;;;;;;;0.00;0.00;;;;;;;20.15;64.82;100330.75;6348603;28;20047;-72
2023/09/09 01:30:23;;;;;;;0.00;0.00;;;;;;;20.04;65.54;100348.50;6341029;28;21714;-72
2023/09/09 01:33:27;;;;;;;0.00;0.00;;;;;;;20.11;65.33;100341.63;6363314;27;20055;-72
2023/09/09 01:36:28;;;;;;;0.00;0.00;;;;;;;20.07;65.78;100342.91;6339298;28;20135;-71
2023/09/09 01:39:28;;;;;;;0.00;0.00;;;;;;;19.95;66.07;100344.06;6345347;28;20098;-72
2023/09/09 01:42:29;;;;;;;0.00;0.00;;;;;;;19.88;66.39;100340.34;6347633;28;20039;-71
2023/09/09 01:45:33;;;;;;;0.00;0.00;;;;;;;19.91;66.25;100342.69;6345908;28;20059;-72
2023/09/09 01:48:34;;;;;;;0.00;0.00;;;;;;;19.88;65.92;100345.66;6332937;28;20060;-72
2023/09/09 01:51:37;;;;;;;0.00;0.00;;;;;;;19.86;65.97;100340.50;6341045;28;20042;-72
2023/09/09 01:54:38;;;;;;;0.00;0.00;;;;;;;19.82;66.35;100343.59;6342534;28;20086;-72
2023/09/09 01:57:39;;;;;;;0.10;0.10;;;;;;;19.86;66.49;100347.63;6344761;27;20418;-72
2023/09/09 02:00:40;;;;;;;0.00;0.00;;;;;;;19.82;66.26;100349.72;6348089;28;20054;-72
2023/09/09 02:03:41;;;;;;;0.00;0.00;;;;;;;19.90;66.06;100355.13;6332634;28;20056;-71
2023/09/09 02:06:44;;;;;;;0.00;0.00;;;;;;;19.77;66.50;100351.97;6346731;28;20494;-72
2023/09/09 02:09:45;;;;;;;0.15;0.15;;;;;;;19.80;66.52;100356.16;6325132;28;20059;-72
2023/09/09 02:12:46;;;;;;;0.10;0.10;;;;;;;19.70;66.86;100357.00;6342731;28;20047;-72
2023/09/09 02:15:49;;;;;;;0.00;0.00;;;;;;;19.76;66.79;100354.78;6340199;28;20080;-71
2023/09/09 02:18:50;;;;;;;0.00;0.00;;;;;;;19.70;67.71;100354.34;6345760;28;20071;-71
2023/09/09 02:21:51;;;;;;;0.00;0.00;;;;;;;19.64;67.89;100357.59;6340897;28;20075;-72
2023/09/09 02:24:58;;;;;;;0.00;0.00;;;;;;;19.60;68.51;100358.00;6338635;28;20096;-72
2023/09/09 02:27:59;;;;;;;0.00;0.00;;;;;;;19.58;67.80;100344.94;6321536;28;20047;-72
2023/09/09 02:31:02;;;;;;;0.00;0.00;;;;;;;19.60;67.55;100348.25;6323153;28;20040;-72
2023/09/09 02:34:05;;;;;;;0.00;0.00;;;;;;;19.62;67.58;100353.38;6341628;28;20044;-72
2023/09/09 02:37:14;;;;;;;0.00;0.00;;;;;;;19.50;67.87;100358.03;6330362;28;20051;-73
2023/09/09 02:40:15;;;;;;;0.00;0.00;;;;;;;19.44;67.85;100348.03;6336840;28;20461;-72
2023/09/09 02:43:16;;;;;;;0.00;0.00;;;;;;;19.41;68.17;100350.94;6345647;28;20047;-72
2023/09/09 02:46:20;;;;;;;0.00;0.00;;;;;;;19.45;68.44;100347.03;6342136;28;20074;-72
2023/09/09 02:49:23;;;;;;;0.00;0.00;;;;;;;19.39;68.64;100344.97;6324666;28;20426;-72
2023/09/09 02:52:24;;;;;;;0.00;0.00;;;;;;;19.38;68.44;100348.59;6344191;28;20050;-72
2023/09/09 02:55:24;;;;;;;0.00;0.00;;;;;;;19.29;68.29;100355.56;6337528;28;20056;-72
2023/09/09 02:58:25;;;;;;;0.00;0.00;;;;;;;19.32;68.19;100355.28;6344372;28;20164;-72
2023/09/09 03:01:26;;;;;;;0.00;0.00;;;;;;;19.29;68.67;100353.78;6335082;28;20101;-72
2023/09/09 03:04:27;;;;;;;0.00;0.00;;;;;;;19.18;69.11;100347.81;6341747;28;20066;-72
2023/09/09 03:07:28;;;;;;;0.00;0.00;;;;;;;19.12;69.38;100350.03;6339276;27;20043;-72
2023/09/09 03:10:29;;;;;;;0.00;0.00;;;;;;;19.12;69.70;100343.91;6344455;28;20055;-71
2023/09/09 03:13:32;;;;;;;0.00;0.00;;;;;;;19.16;69.55;100341.81;6336575;28;20042;-71
2023/09/09 03:16:34;;;;;;;0.00;0.00;;;;;;;19.12;69.56;100344.75;6338181;27;20450;-72
2023/09/09 03:19:35;;;;;;;0.32;0.32;;;;;;;19.09;69.89;100346.84;6327590;28;20047;-72
2023/09/09 03:22:38;;;;;;;0.00;0.00;;;;;;;19.11;70.01;100351.03;6338715;28;20039;-71
2023/09/09 03:25:39;;;;;;;0.00;0.00;;;;;;;19.13;69.56;100346.41;6341674;28;20543;-72
2023/09/09 03:28:40;;;;;;;0.00;0.00;;;;;;;19.15;69.40;100337.50;6343856;28;20066;-72
2023/09/09 03:31:41;;;;;;;0.00;0.00;;;;;;;19.10;69.77;100336.09;6345471;28;20040;-72
2023/09/09 03:34:43;;;;;;;0.00;0.00;;;;;;;19.04;69.79;100339.31;6333411;28;20396;-72
2023/09/09 03:37:43;;;;;;;0.00;0.00;;;;;;;18.99;69.84;100338.09;6338441;28;20048;-72
2023/09/09 03:40:44;;;;;;;0.00;0.00;;;;;;;18.95;70.13;100339.34;6346529;28;20043;-71
2023/09/09 03:43:48;;;;;;;0.00;0.00;;;;;;;18.93;70.46;100335.03;6345150;28;20055;-71
2023/09/09 03:46:49;;;;;;;0.00;0.00;;;;;;;18.97;70.18;100340.88;6344178;28;20055;-71
2023/09/09 03:49:55;;;;;;;0.00;0.00;;;;;;;18.80;70.10;100342.44;6321577;28;20067;-72
2023/09/09 03:52:56;;;;;;;0.00;0.00;;;;;;;18.84;69.92;100337.66;6343433;28;20130;-72
2023/09/09 03:55:59;;;;;;;0.00;0.00;;;;;;;18.88;70.34;100337.28;6326912;28;20137;-72
2023/09/09 03:59:02;;;;;;;0.00;0.00;;;;;;;18.72;70.34;100337.78;6337458;28;20055;-72
2023/09/09 04:02:02;;;;;;;0.00;0.00;;;;;;;18.79;70.75;100346.03;6333253;28;20488;-72
2023/09/09 04:05:09;;;;;;;0.00;0.00;;;;;;;18.62;71.47;100342.25;6330601;28;20059;-72
2023/09/09 04:08:12;;;;;;;0.00;0.00;;;;;;;18.52;71.63;100344.03;6347458;28;20075;-71
2023/09/09 04:11:18;;;;;;;0.00;0.00;;;;;;;18.50;72.17;100338.06;6337408;28;20380;-72
2023/09/09 04:14:19;;;;;;;0.00;0.00;;;;;;;18.50;72.96;100344.19;6348268;28;20490;-72
2023/09/09 04:17:19;;;;;;;0.00;0.00;;;;;;;18.36;72.36;100344.56;6350660;28;20051;-72
2023/09/09 04:20:20;;;;;;;0.05;0.05;;;;;;;18.43;72.61;100345.72;6331075;28;20105;-71
2023/09/09 04:23:21;;;;;;;0.00;0.00;;;;;;;18.46;72.99;100353.34;6341016;28;20076;-72
2023/09/09 04:26:22;;;;;;;0.00;0.00;;;;;;;18.42;73.42;100354.59;6342100;28;20079;-72
2023/09/09 04:29:22;;;;;;;0.00;0.00;;;;;;;18.45;73.31;100354.34;6350451;28;20051;-72
2023/09/09 04:32:23;;;;;;;0.13;0.13;;;;;;;18.60;73.04;100349.47;6350933;28;20456;-72
2023/09/09 04:35:24;;;;;;;0.00;0.00;;;;;;;18.69;73.07;100355.72;6344194;28;20048;-72
2023/09/09 04:38:25;;;;;;;0.08;0.08;;;;;;;18.68;73.90;100354.91;6333772;28;20071;-72
2023/09/09 04:41:26;;;;;;;0.00;0.00;;;;;;;18.55;74.63;100354.31;6346264;28;20069;-72
2023/09/09 04:44:27;;;;;;;0.00;0.00;;;;;;;18.64;74.48;100347.41;6344841;28;20043;-72
2023/09/09 04:47:28;;;;;;;0.00;0.00;;;;;;;18.61;75.01;100353.78;6347966;28;20052;-72
2023/09/09 04:50:29;;;;;;;0.00;0.00;;;;;;;18.69;74.90;100353.91;6341167;28;20131;-72
2023/09/09 04:53:30;;;;;;;0.00;0.00;;;;;;;18.90;74.71;100350.31;6338444;28;20168;-73
2023/09/09 04:56:36;;;;;;;0.00;0.00;;;;;;;18.85;74.80;100353.41;6344767;28;20052;-73
2023/09/09 04:59:38;;;;;;;0.00;0.00;;;;;;;18.88;75.28;100355.78;6340667;28;20056;-73
2023/09/09 05:02:41;;;;;;;0.00;0.00;;;;;;;18.91;75.13;100352.84;6335121;28;20052;-73
2023/09/09 05:05:42;;;;;;;0.00;0.00;;;;;;;19.15;74.87;100353.38;6348001;28;20048;-73
2023/09/09 05:08:43;;;;;;;0.00;0.00;;;;;;;19.40;73.94;100350.13;6348322;28;20059;-73
2023/09/09 05:11:44;;;;;;;0.00;0.00;;;;;;;19.48;73.41;100352.88;6349079;28;20043;-73
2023/09/09 05:14:45;;;;;;;0.00;0.00;;;;;;;19.52;73.17;100353.44;6347688;28;20051;-73
2023/09/09 05:17:45;;;;;;;0.00;0.00;;;;;;;19.68;73.05;100358.09;6348951;28;20044;-73
2023/09/09 05:20:46;;;;;;;0.00;0.00;;;;;;;19.66;73.52;100363.56;6346440;28;20087;-73
2023/09/09 05:23:50;;;;;;;0.00;0.00;;;;;;;19.63;74.16;100363.00;6324015;28;20127;-73
2023/09/09 05:26:51;;;;;;;0.00;0.00;;;;;;;19.75;74.11;100361.88;6323390;28;20197;-72
2023/09/09 05:29:54;;;;;;;0.10;0.10;;;;;;;20.10;72.63;100365.63;6344562;28;20717;-73
2023/09/09 05:32:55;;;;;;;0.00;0.00;;;;;;;20.06;73.06;100377.50;6346074;28;20092;-73
2023/09/09 05:35:56;;;;;;;0.00;0.00;;;;;;;20.10;73.39;100369.09;6322013;28;20155;-73
2023/09/09 05:38:59;;;;;;;0.00;0.00;;;;;;;20.27;72.97;100369.28;6333514;28;20392;-72
2023/09/09 05:42:02;;;;;;;0.00;0.00;;;;;;;20.46;72.47;100377.09;6348762;28;20051;-72
2023/09/09 05:45:08;;;;;;;0.00;0.00;;;;;;;20.50;72.64;100377.63;6347990;28;20483;-73
2023/09/09 05:48:11;;;;;;;0.00;0.00;;;;;;;20.66;72.38;100382.31;6346884;28;20051;-73
2023/09/09 05:51:12;;;;;;;0.00;0.00;;;;;;;20.79;72.15;100387.22;6348634;28;20104;-73
2023/09/09 05:54:13;;;;;;;0.00;0.00;;;;;;;20.94;71.33;100385.72;6348117;28;20047;-72
2023/09/09 05:57:16;;;;;;;0.00;0.00;;;;;;;21.15;70.43;100388.03;6347880;28;20073;-73
2023/09/09 06:00:17;;;;;;;0.10;0.10;;;;;;;21.06;72.07;100391.59;6348320;28;20082;-73
2023/09/09 06:03:18;;;;;;;0.10;0.10;;;;;;;21.33;70.94;100390.66;6346431;28;20051;-73
2023/09/09 06:06:22;;;;;;;0.08;0.08;;;;;;;21.60;70.87;100395.03;6347561;28;20415;-73
2023/09/09 06:09:23;;;;;;;0.63;0.30;;;;;;;21.56;69.53;100392.81;6346467;28;20060;-73
2023/09/09 06:12:24;;;;;;;0.00;0.00;;;;;;;21.84;67.87;100396.13;6342982;28;20125;-73
2023/09/09 06:15:27;;;;;;;0.00;0.00;;;;;;;21.83;68.67;100400.63;6340247;28;20483;-73
2023/09/09 06:18:28;;;;;;;0.00;0.00;;;;;;;22.09;68.45;100407.69;6334701;28;20047;-73
2023/09/09 06:21:29;;;;;;;0.00;0.00;;;;;;;22.04;67.95;100412.66;6326997;28;20404;-74
2023/09/09 06:24:30;;;;;;;0.00;0.00;;;;;;;22.30;66.75;100402.00;6345980;28;20463;-74
2023/09/09 06:27:31;;;;;;;0.00;0.00;;;;;;;22.51;66.50;100399.72;6334829;28;20051;-74
2023/09/09 06:30:34;;;;;;;0.00;0.00;;;;;;;22.77;65.95;100406.75;6335007;28;20122;-73
2023/09/09 06:33:37;;;;;;;0.13;0.13;;;;;;;22.86;64.46;100403.13;6336076;28;20046;-73
2023/09/09 06:36:38;;;;;;;0.00;0.00;;;;;;;23.00;63.87;100411.41;6337000;28;20066;-72
2023/09/09 06:39:39;;;;;;;0.00;0.00;;;;;;;23.05;62.56;100404.66;6336966;28;20043;-72
2023/09/09 06:42:39;;;;;;;0.00;0.00;;;;;;;23.30;61.84;100407.28;6336828;28;20376;-71
2023/09/09 06:45:43;;;;;;;0.10;0.10;;;;;;;23.53;61.50;100413.59;6335367;28;20051;-72
2023/09/09 06:48:46;;;;;;;0.00;0.00;;;;;;;23.61;60.43;100407.41;6335268;28;20479;-72
2023/09/09 06:51:47;;;;;;;0.00;0.00;;;;;;;23.73;60.31;100408.72;6336639;28;20061;-72
2023/09/09 06:54:53;;;;;;;0.45;0.45;;;;;;;23.91;59.19;100411.19;6336481;28;20046;-73
2023/09/09 06:57:56;;;;;;;0.00;0.00;;;;;;;23.98;60.08;100411.34;6334839;28;20054;-72
2023/09/09 07:00:58;;;;;;;0.00;0.00;;;;;;;24.09;59.89;100416.31;6336321;28;20044;-72
2023/09/09 07:03:59;;;;;;;0.00;0.00;;;;;;;24.32;60.12;100415.53;6347982;27;20055;-72
2023/09/09 07:06:59;;;;;;;0.00;0.00;;;;;;;24.50;59.00;100423.28;6334693;28;20536;-72
2023/09/09 07:10:00;;;;;;;0.00;0.00;;;;;;;24.86;58.34;100412.88;6334780;28;20051;-72
2023/09/09 07:13:01;;;;;;;0.00;0.00;;;;;;;24.94;57.99;100414.66;6333853;28;20044;-73
2023/09/09 07:16:02;;;;;;;0.00;0.00;;;;;;;25.11;57.62;100426.88;6334669;28;20291;-72
2023/09/09 07:19:03;;;;;;;0.00;0.00;;;;;;;25.11;56.67;100421.53;6335365;28;20494;-73
2023/09/09 07:22:07;;;;;;;0.00;0.00;;;;;;;25.15;56.64;100424.66;6334185;28;20043;-72
2023/09/09 07:25:08;;;;;;;0.10;0.10;;;;;;;25.31;55.64;100421.88;6334802;28;20051;-72
2023/09/09 07:28:10;;;;;;;0.00;0.00;;;;;;;25.37;56.77;100430.16;6343051;28;20047;-72
2023/09/09 07:31:11;;;;;;;0.00;0.00;;;;;;;25.60;56.49;100422.94;6343148;28;20280;-72
2023/09/09 07:34:12;;;;;;;0.00;0.00;;;;;;;25.74;55.74;100435.50;6343874;28;20043;-72
2023/09/09 07:37:13;;;;;;;0.00;0.00;;;;;;;25.83;54.75;100427.38;6345708;28;20052;-72
2023/09/09 07:40:14;;;;;;;0.00;0.00;;;;;;;25.78;52.69;100435.13;6344315;28;20073;-73
2023/09/09 07:43:18;;;;;;;0.20;0.20;;;;;;;26.08;51.88;100436.78;6346946;28;20050;-73
2023/09/09 07:46:19;;;;;;;0.00;0.00;;;;;;;26.36;52.97;100438.81;6347075;28;20056;-73
2023/09/09 07:49:23;;;;;;;0.00;0.00;;;;;;;26.40;51.98;100423.19;6343916;28;20384;-72
2023/09/09 07:52:24;;;;;;;0.00;0.00;;;;;;;26.70;51.83;100432.81;6350935;28;20044;-72
2023/09/09 07:55:25;;;;;;;0.00;0.00;;;;;;;26.79;50.84;100427.34;6351201;28;20051;-72
2023/09/09 07:58:26;;;;;;;0.10;0.10;;;;;;;27.06;52.01;100429.25;6349544;28;20056;-73
2023/09/09 08:01:29;;;;;;;0.00;0.00;;;;;;;27.13;49.25;100427.47;6349607;28;20127;-73
2023/09/09 08:04:30;;;;;;;0.00;0.00;;;;;;;27.08;48.98;100426.41;6349287;28;20063;-73
2023/09/09 08:07:34;;;;;;;0.00;0.00;;;;;;;27.50;50.94;100427.38;6350693;28;20056;-73
2023/09/09 08:10:34;;;;;;;0.00;0.00;;;;;;;27.65;49.06;100435.28;6350545;28;20051;-73
2023/09/09 08:13:35;;;;;;;0.00;0.00;;;;;;;27.37;48.71;100427.28;6350741;28;20047;-72
2023/09/09 08:16:39;;;;;;;0.00;0.00;;;;;;;27.70;49.03;100435.56;6349257;28;20055;-72
2023/09/09 08:19:40;;;;;;;0.00;0.00;;;;;;;27.82;47.71;100425.09;6350114;28;20043;-72
2023/09/09 08:22:41;;;;;;;;;;;;;;;27.98;47.85;100432.84;6349477;28;20077;-73
2023/09/09 08:25:41;;;;;;;0.00;0.00;;;;;;;28.21;47.97;100423.66;6348829;28;19994;-72
2023/09/09 08:28:42;;;;;;;0.00;0.00;;;;;;;27.76;48.82;100423.19;6350128;28;20052;-73
2023/09/09 08:31:47;;;;;;;0.00;0.00;;;;;;;28.11;48.90;100424.06;6348848;28;20055;-72
2023/09/09 08:34:54;;;;;;;0.10;0.10;;;;;;;28.39;46.56;100431.97;6348882;28;20055;-72
2023/09/09 08:37:55;;;;;;;0.00;0.00;;;;;;;28.18;45.96;100430.25;6349744;27;20479;-72
2023/09/09 08:41:23;;;;;;;0.10;0.10;;;;;;;28.62;48.16;100425.47;6348794;28;20073;-72
2023/09/09 08:44:35;;;;;;;0.00;0.00;;;;;;;28.08;47.43;100429.78;6348480;28;20047;-72
2023/09/09 08:47:40;;;;;;;0.10;0.10;;;;;;;28.27;46.66;100423.69;6348543;28;20056;-72
2023/09/09 08:50:46;;;;;;;0.00;0.00;;;;;;;28.70;44.97;100417.22;6349382;28;20047;-73
2023/09/09 08:53:52;;;;;;;0.00;0.00;;;;;;;29.16;44.63;100419.19;6349245;28;20052;-72
2023/09/09 08:56:53;;;;;;;0.10;0.10;;;;;;;28.77;47.72;100422.63;6349860;28;20044;-73
2023/09/09 08:59:57;;;;;;;0.00;0.00;;;;;;;28.97;43.93;100430.69;6347992;28;20173;-72
2023/09/09 09:03:00;;;;;;;0.00;0.00;;;;;;;29.50;43.35;100428.03;6347821;28;20058;-73
2023/09/09 09:06:05;;;;;;;0.77;0.55;;;;;;;29.69;44.64;100421.81;6347891;28;20459;-72
2023/09/09 09:09:06;;;;;;;0.20;0.20;;;;;;;29.27;43.36;100423.09;6347967;28;20052;-72
2023/09/09 09:12:13;;;;;;;0.90;0.65;;;;;;;29.68;41.32;100420.13;6348057;28;20093;-72
2023/09/09 09:15:13;;;;;;;0.73;0.65;;;;;;;29.83;43.07;100425.28;6347754;28;20503;-73
2023/09/09 09:18:17;;;;;;;0.00;0.00;;;;;;;30.36;41.19;100423.47;6347648;28;20043;-72
2023/09/09 09:21:18;;;;;;;0.00;0.00;;;;;;;30.39;38.82;100420.34;6347649;28;20506;-72
2023/09/09 09:24:24;;;;;;;0.00;0.00;;;;;;;30.31;40.11;100422.25;6348721;28;20503;-73
2023/09/09 09:27:30;;;;;;;0.00;0.00;;;;;;;30.41;41.30;100418.25;6347890;28;20052;-73
2023/09/09 09:30:33;;;;;;;0.10;0.10;;;;;;;30.50;40.08;100415.13;6349079;28;20059;-73
2023/09/09 09:33:36;;;;;;;0.00;0.00;;;;;;;29.97;39.50;100420.69;6347420;28;20045;-73
2023/09/09 09:36:39;;;;;;;0.00;0.00;;;;;;;30.44;39.82;100415.97;6348397;28;20054;-72
2023/09/09 09:39:43;;;;;;;0.10;0.10;;;;;;;30.63;40.17;100411.50;6348440;28;20055;-72
2023/09/09 09:42:46;;;;;;;0.00;0.00;;;;;;;30.75;40.48;100405.44;6346937;28;20070;-72
2023/09/09 09:45:47;;;;;;;0.00;0.00;;;;;;;30.59;39.20;100420.25;6348396;28;20051;-72
2023/09/09 09:48:50;;;;;;;0.00;0.00;;;;;;;30.88;39.94;100410.75;6346902;28;20051;-72
2023/09/09 09:51:51;;;;;;;0.00;0.00;;;;;;;30.46;38.15;100416.59;6347090;28;20075;-73
2023/09/09 09:54:53;;;;;;;0.00;0.00;;;;;;;30.68;39.84;100418.94;6348143;28;20048;-73
2023/09/09 09:58:07;;;;;;;0.00;0.00;;;;;;;30.81;37.87;100421.53;6348019;28;20082;-72
2023/09/09 10:01:09;;;;;;;0.00;0.00;;;;;;;30.87;38.08;100415.31;6347647;28;20082;-72
2023/09/09 10:04:16;;;;;;;0.00;0.00;;;;;;;30.40;41.63;100424.69;6346457;28;20051;-72
2023/09/09 10:07:23;;;;;;;0.10;0.10;;;;;;;31.37;40.31;100414.47;6347066;28;20048;-72
2023/09/09 10:10:29;;;;;;;0.00;0.00;;;;;;;31.66;36.42;100407.56;6347781;27;20097;-73
2023/09/09 10:13:37;;;;;;;0.47;0.30;;;;;;;31.37;35.02;100406.38;6347435;28;20043;-72
2023/09/09 10:16:39;;;;;;;0.10;0.10;;;;;;;31.50;35.17;100409.00;6346599;28;20058;-72
2023/09/09 10:19:41;;;;;;;0.00;0.00;;;;;;;31.01;37.30;100404.44;6347366;28;20085;-72
2023/09/09 10:22:43;;;;;;;0.00;0.00;;;;;;;31.46;37.21;100407.81;6345977;28;20510;-72
2023/09/09 10:25:47;;;;;;;0.00;0.00;;;;;;;31.69;35.98;100407.13;6346132;28;20449;-72
2023/09/09 10:28:49;;;;;;;0.00;0.00;;;;;;;31.64;33.53;100406.16;6347016;28;20059;-72
2023/09/09 10:31:53;;;;;;;1.65;0.32;;;;;;;31.71;35.01;100404.19;6347197;28;20043;-73
2023/09/09 10:34:57;;;;;;;0.00;0.00;;;;;;;31.94;33.54;100400.84;6345780;28;20054;-73
2023/09/09 10:37:58;;;;;;;0.22;0.00;;;;;;;31.78;34.02;100388.78;6345849;28;20548;-73
2023/09/09 10:41:03;;;;;;;1.17;0.30;;;;;;;31.61;34.91;100391.25;6345524;28;20047;-73
2023/09/09 10:44:06;;;;;;;0.05;0.05;;;;;;;32.09;34.10;100385.09;6345495;28;20040;-72
2023/09/09 10:47:08;;;;;;;0.00;0.00;;;;;;;32.11;33.63;100392.97;6346752;28;20502;-72
2023/09/09 10:50:09;;;;;;;0.10;0.10;;;;;;;32.25;33.62;100393.63;6345612;28;20056;-73
2023/09/09 10:53:20;;;;;;;;;;;;;;;32.58;36.49;100385.09;6345896;28;20051;-73
2023/09/09 10:56:22;;;;;;;0.00;0.00;;;;;;;32.72;34.47;100378.41;6345391;28;19923;-73
2023/09/09 10:59:25;;;;;;;0.00;0.00;;;;;;;32.69;35.83;100378.88;6345240;28;20088;-72
2023/09/09 11:02:28;;;;;;;0.00;0.00;;;;;;;32.75;37.74;100379.81;6346233;28;20509;-73
2023/09/09 11:05:29;;;;;;;0.10;0.10;;;;;;;32.84;34.12;100366.78;6346387;28;20144;-73
2023/09/09 11:08:43;;;;;;;0.00;0.00;;;;;;;32.26;34.05;100365.56;6346371;28;20602;-73
2023/09/09 11:11:55;;;;;;;0.10;0.10;;;;;;;32.53;35.53;100361.44;6346276;28;20043;-73
2023/09/09 11:15:12;;;;;;;0.00;0.00;;;;;;;32.78;37.46;100357.75;6344930;28;20429;-73
2023/09/09 11:18:14;;;;;;;0.25;0.25;;;;;;;32.74;36.88;100353.88;6346156;28;20134;-73
2023/09/09 11:21:18;;;;;;;0.25;0.25;;;;;;;32.70;35.58;100355.41;6346140;28;20055;-73
2023/09/09 11:24:20;;;;;;;0.00;0.00;;;;;;;32.36;35.27;100359.63;6346642;28;20102;-73
2023/09/09 11:27:21;;;;;;;0.20;0.10;;;;;;;32.11;36.46;100350.59;6345133;28;20064;-73
2023/09/09 11:30:24;;;;;;;0.00;0.00;;;;;;;32.45;35.76;100342.88;6345956;28;20073;-73
2023/09/09 11:33:25;;;;;;;0.00;0.00;;;;;;;32.16;34.82;100352.59;6344732;28;20527;-73
2023/09/09 11:36:27;;;;;;;9.20;1.75;;;;;;;32.15;36.05;100347.47;6345901;28;20423;-73
2023/09/09 11:39:28;;;;;;;0.00;0.00;;;;;;;32.69;33.81;100342.94;6345850;28;20398;-73
2023/09/09 11:42:29;;;;;;;0.10;0.10;;;;;;;32.37;34.73;100345.06;6344709;28;20127;-73
2023/09/09 11:45:32;;;;;;;0.10;0.10;;;;;;;32.80;32.91;100339.44;6345764;28;20479;-74
2023/09/09 11:48:33;;;;;;;0.10;0.10;;;;;;;32.57;33.85;100339.38;6344673;28;20051;-73
2023/09/09 11:51:35;;;;;;;0.15;0.15;;;;;;;32.65;34.25;100339.06;6344527;28;20130;-73
2023/09/09 11:54:38;;;;;;;0.00;0.00;;;;;;;32.57;34.60;100340.22;6345938;28;20498;-73
2023/09/09 11:57:54;;;;;;;0.00;0.00;;;;;;;32.53;32.63;100333.59;6345655;28;20112;-73
2023/09/09 12:01:01;;;;;;;0.28;0.10;;;;;;;32.74;33.50;100332.28;6344426;28;20053;-73
2023/09/09 12:04:06;;;;;;;0.00;0.00;;;;;;;32.32;33.87;100321.44;6344184;28;20492;-73
2023/09/09 12:07:07;;;;;;;0.00;0.00;;;;;;;33.07;32.40;100328.97;6344536;28;20047;-73
2023/09/09 12:10:14;;;;;;;0.00;0.00;;;;;;;32.39;32.69;100324.91;6344698;28;20044;-73
2023/09/09 12:13:16;;;;;;;0.00;0.00;;;;;;;32.88;34.58;100324.75;6344467;28;20097;-73
2023/09/09 12:16:17;;;;;;;0.00;0.00;;;;;;;32.83;34.26;100322.75;6345795;28;20052;-73
2023/09/09 12:19:20;;;;;;;0.00;0.00;;;;;;;32.80;32.75;100319.69;6344144;28;20047;-72
2023/09/09 12:22:30;;;;;;;0.00;0.00;;;;;;;32.73;32.77;100315.22;6345193;28;20403;-73
2023/09/09 12:25:35;;;;;;;0.00;0.00;;;;;;;32.56;34.24;100308.06;6345302;28;20400;-73
2023/09/09 12:28:36;;;;;;;0.00;0.00;;;;;;;32.76;33.91;100311.25;6346573;28;20051;-73
2023/09/09 12:31:49;;;;;;;;;;;;;;;32.98;35.64;100308.75;6350405;28;20043;-73
2023/09/09 12:34:50;;;;;;;0.10;0.00;;;;;;;32.88;32.07;100303.13;6348891;28;19945;-74
2023/09/09 12:37:51;;;;;;;0.00;0.00;;;;;;;32.61;32.83;100294.66;6349867;28;20087;-73
2023/09/09 12:41:06;;;;;;;0.00;0.00;;;;;;;31.97;33.43;100294.31;6349958;28;20047;-73
2023/09/09 12:44:09;;;;;;;0.15;0.15;;;;;;;32.62;34.79;100296.31;6348341;28;20098;-72
2023/09/09 12:47:10;;;;;;;0.00;0.00;;;;;;;32.62;34.69;100299.84;6349619;28;20074;-73
2023/09/09 12:50:11;;;;;;;0.10;0.10;;;;;;;32.37;35.08;100296.47;6348620;28;20503;-73
2023/09/09 12:53:16;;;;;;;0.00;0.00;;;;;;;32.24;34.94;100294.78;6349648;28;20131;-74
2023/09/09 12:56:18;;;;;;;0.00;0.00;;;;;;;32.69;34.92;100291.59;6348271;28;20048;-73
2023/09/09 12:59:23;;;;;;;0.00;0.00;;;;;;;32.72;33.73;100296.56;6349638;28;20047;-73
2023/09/09 13:02:24;;;;;;;0.10;0.10;;;;;;;32.44;35.74;100286.38;6349153;28;20051;-73
2023/09/09 13:05:25;;;;;;;0.10;0.10;;;;;;;32.58;35.04;100287.84;6349509;28;20047;-73
2023/09/09 13:08:26;;;;;;;;;;;;;;;32.78;34.97;100284.81;6348600;28;20051;-73
2023/09/09 13:11:29;;;;;;;0.15;0.15;;;;;;;32.46;33.84;100290.50;6349055;28;20392;-73
2023/09/09 13:14:33;;;;;;;0.00;0.00;;;;;;;32.80;35.02;100284.56;6347910;28;20510;-73
2023/09/09 13:17:34;;;;;;;0.00;0.00;;;;;;;32.80;36.17;100277.31;6347803;28;20483;-73
2023/09/09 13:20:34;;;;;;;0.00;0.00;;;;;;;32.73;33.53;100280.09;6347813;28;20135;-73
2023/09/09 13:23:35;;;;;;;0.00;0.00;;;;;;;32.57;35.12;100285.38;6347556;28;20412;-73
2023/09/09 13:26:38;;;;;;;0.28;0.28;;;;;;;32.43;34.97;100287.44;6347825;28;20130;-73
2023/09/09 13:29:39;;;;;;;0.17;0.17;;;;;;;32.49;35.39;100283.81;6348582;28;20047;-73
2023/09/09 13:32:43;;;;;;;0.00;0.00;;;;;;;31.92;34.80;100284.22;6347602;28;20479;-73
2023/09/09 13:35:44;;;;;;;0.00;0.00;;;;;;;32.26;35.44;100282.69;6348442;28;20496;-73
2023/09/09 13:38:47;;;;;;;1.15;0.10;;;;;;;32.03;35.68;100280.75;6348693;28;20043;-73
2023/09/09 13:41:48;;;;;;;0.00;0.00;;;;;;;32.03;34.86;100277.25;6347131;28;20081;-73
2023/09/09 13:44:49;;;;;;;0.00;0.00;;;;;;;31.95;37.98;100280.25;6347157;28;20051;-73
2023/09/09 13:47:50;;;;;;;;;;;;;;;31.51;35.73;100275.00;6347625;28;20048;-73
2023/09/09 13:50:52;;;;;;;0.00;0.00;;;;;;;31.51;36.26;100283.09;6346831;28;20287;-73
2023/09/09 13:53:55;;;;;;;0.00;0.00;;;;;;;31.56;32.75;100275.13;6347006;28;20047;-73
2023/09/09 13:56:59;;;;;;;0.00;0.00;;;;;;;31.62;33.63;100273.41;6347917;28;20053;-73
2023/09/09 14:00:05;;;;;;;0.10;0.10;;;;;;;31.73;36.87;100272.63;6346844;28;20048;-73
2023/09/09 14:03:06;;;;;;;0.00;0.00;;;;;;;31.70;33.08;100265.81;6346251;28;20074;-73
2023/09/09 14:06:08;;;;;;;0.00;0.00;;;;;;;31.63;34.93;100272.34;6346782;28;20044;-73
2023/09/09 14:09:09;;;;;;;0.00;0.00;;;;;;;31.56;34.77;100261.66;6347843;28;20087;-73
2023/09/09 14:12:10;;;;;;;0.10;0.05;;;;;;;31.63;35.35;100267.81;6347805;28;20103;-73